메인 페이지
METAR-TAF:

METAR-TAF

공항 :

리스본 포르텔라 국제공항

리스본, 포르투갈

위도: 38-46N, 경도: 009-08W, 고도: 114m

현재 날씨관측

예보는 11분 전, 09:30시(UTC)에 발표되었습니다.
6kt북서풍과 북북동풍을 오가는
온도 26°C
습도 54%
기압 1016 hPa
시정 10km 이상
1500m 미만 상공 구름 및 적란운 없음

METAR: LPPT 200930Z 35006KT 320V020 CAVOK 26/16 Q1016

시각: 10:41 (09:41 UTC)

예보

예보는 4 시간 41분 전, 05:00시(UTC)에 발표되었습니다.
예보 대상 시간: 20일 06시부터 21일 12시까지 (UTC)
여러 방향의 바람 3kt
시정 10km 이상
1500m 미만 상공 구름 및 적란운 없음
전환 중
20일 09시부터 20일 11시까지 (UTC)
5kt
시정 10km 이상
고도 4000ft 상공 구름 조금
전환 중
20일 15시부터 20일 18시까지 (UTC)
북북서8kt
확률 30% :
일시적
20일 15시부터 21일 12시까지 (UTC)
시정: 5000m
고도 2000ft 상공 구름 보통
고도 3500ft 상공 구름 조금, 적란운.
뇌우, 비
전환 중
21일 03시부터 21일 05시까지 (UTC)
여러 방향의 바람 3kt
전환 중
21일 08시부터 21일 10시까지 (UTC)
동북동8kt

TAF: LPPT 200500Z 2006/2112 VRB03KT CAVOK BECMG 2009/2011 09005KT 9999 FEW040 BECMG 2015/2018 33008KT PROB30 TEMPO 2015/2112 5000 TSRA SCT020 FEW035CB BECMG 2103/2105 VRB03KT BECMG 2108/2110 06008KT

4,000개 이상의 공항 관측 자료 및 예보 (METAR 및 TAF 보고).

지도상에서 검색 가능한 기상관측소가 노란 점과 빨간 점으로 표시되어 있습니다.

기상관측소 명을 보려면 표시 위로 마우스를 이동하세요.

날씨 관측과 예보를 보려면 클릭하세요.

지도 변경 : 확대하려면 엑스 표시가 있는 녹색 버튼, 축소하려면 빼기 표시가 있는 녹색 버튼, 다음 페이지의 지도를 보려면 녹색 화살표를 클릭하세요.


METAR-TAF: